sensor_id;sensor_type;location;lat;lon;timestamp;P1;durP1;ratioP1;P2;durP2;ratioP2
76725;SDS011;65651;53.154;17.916;2023-10-13T00:00:43;11.80;;;5.20;;
76725;SDS011;65651;53.154;17.916;2023-10-13T00:03:30;18.70;;;6.90;;
76725;SDS011;65651;53.154;17.916;2023-10-13T00:05:58;14.60;;;5.80;;
76725;SDS011;65651;53.154;17.916;2023-10-13T00:08:29;16.30;;;6.60;;
76725;SDS011;65651;53.154;17.916;2023-10-13T00:10:57;12.70;;;6.90;;
76725;SDS011;65651;53.154;17.916;2023-10-13T00:13:27;11.00;;;6.30;;
76725;SDS011;65651;53.154;17.916;2023-10-13T00:15:57;15.60;;;7.00;;
76725;SDS011;65651;53.154;17.916;2023-10-13T00:18:28;14.10;;;6.80;;
76725;SDS011;65651;53.154;17.916;2023-10-13T00:21:01;13.40;;;6.20;;
76725;SDS011;65651;53.154;17.916;2023-10-13T00:23:45;12.40;;;6.30;;
76725;SDS011;65651;53.154;17.916;2023-10-13T00:26:20;12.50;;;6.00;;
76725;SDS011;65651;53.154;17.916;2023-10-13T00:28:55;14.30;;;6.50;;
76725;SDS011;65651;53.154;17.916;2023-10-13T00:31:42;16.30;;;6.60;;
76725;SDS011;65651;53.154;17.916;2023-10-13T00:34:14;12.10;;;5.90;;
76725;SDS011;65651;53.154;17.916;2023-10-13T00:36:51;10.50;;;5.70;;
76725;SDS011;65651;53.154;17.916;2023-10-13T00:39:37;10.50;;;5.60;;
76725;SDS011;65651;53.154;17.916;2023-10-13T00:42:12;12.30;;;6.50;;
76725;SDS011;65651;53.154;17.916;2023-10-13T00:44:51;13.20;;;5.90;;
76725;SDS011;65651;53.154;17.916;2023-10-13T00:47:22;14.80;;;5.70;;
76725;SDS011;65651;53.154;17.916;2023-10-13T00:50:09;11.90;;;5.80;;
76725;SDS011;65651;53.154;17.916;2023-10-13T00:52:38;11.00;;;5.60;;
76725;SDS011;65651;53.154;17.916;2023-10-13T00:55:08;10.90;;;5.50;;
76725;SDS011;65651;53.154;17.916;2023-10-13T00:57:36;13.60;;;5.80;;
76725;SDS011;65651;53.154;17.916;2023-10-13T01:00:04;10.50;;;5.80;;
76725;SDS011;65651;53.154;17.916;2023-10-13T01:02:45;11.10;;;4.90;;
76725;SDS011;65651;53.154;17.916;2023-10-13T01:05:22;14.20;;;5.70;;
76725;SDS011;65651;53.154;17.916;2023-10-13T01:07:53;11.00;;;5.30;;
76725;SDS011;65651;53.154;17.916;2023-10-13T01:10:21;14.00;;;5.20;;
76725;SDS011;65651;53.154;17.916;2023-10-13T01:12:58;12.90;;;5.80;;
76725;SDS011;65651;53.154;17.916;2023-10-13T01:15:29;12.70;;;5.50;;
76725;SDS011;65651;53.154;17.916;2023-10-13T01:18:08;11.00;;;5.90;;
76725;SDS011;65651;53.154;17.916;2023-10-13T01:20:40;13.20;;;5.70;;
76725;SDS011;65651;53.154;17.916;2023-10-13T01:23:12;9.40;;;6.00;;
76725;SDS011;65651;53.154;17.916;2023-10-13T01:25:46;10.50;;;5.50;;
76725;SDS011;65651;53.154;17.916;2023-10-13T01:28:14;15.40;;;6.30;;
76725;SDS011;65651;53.154;17.916;2023-10-13T01:30:45;11.90;;;5.70;;
76725;SDS011;65651;53.154;17.916;2023-10-13T01:33:21;9.40;;;5.20;;
76725;SDS011;65651;53.154;17.916;2023-10-13T01:35:54;10.90;;;5.50;;
76725;SDS011;65651;53.154;17.916;2023-10-13T01:38:25;11.10;;;5.40;;
76725;SDS011;65651;53.154;17.916;2023-10-13T01:40:54;11.70;;;5.60;;
76725;SDS011;65651;53.154;17.916;2023-10-13T01:43:23;10.80;;;5.40;;
76725;SDS011;65651;53.154;17.916;2023-10-13T01:45:53;13.60;;;5.50;;
76725;SDS011;65651;53.154;17.916;2023-10-13T01:48:21;9.90;;;5.40;;
76725;SDS011;65651;53.154;17.916;2023-10-13T01:50:49;12.20;;;5.20;;
76725;SDS011;65651;53.154;17.916;2023-10-13T01:53:22;11.00;;;4.80;;
76725;SDS011;65651;53.154;17.916;2023-10-13T01:55:55;11.60;;;5.70;;
76725;SDS011;65651;53.154;17.916;2023-10-13T01:58:25;9.80;;;4.60;;
76725;SDS011;65651;53.154;17.916;2023-10-13T02:00:56;11.60;;;5.60;;
76725;SDS011;65651;53.154;17.916;2023-10-13T02:03:23;12.00;;;5.80;;
76725;SDS011;65651;53.154;17.916;2023-10-13T02:05:50;13.40;;;6.00;;
76725;SDS011;65651;53.154;17.916;2023-10-13T02:08:24;11.20;;;5.40;;
76725;SDS011;65651;53.154;17.916;2023-10-13T02:10:55;12.00;;;5.60;;
76725;SDS011;65651;53.154;17.916;2023-10-13T02:13:24;14.80;;;5.20;;
76725;SDS011;65651;53.154;17.916;2023-10-13T02:15:53;12.40;;;5.40;;
76725;SDS011;65651;53.154;17.916;2023-10-13T02:18:29;10.30;;;5.60;;
76725;SDS011;65651;53.154;17.916;2023-10-13T02:21:08;9.70;;;5.80;;
76725;SDS011;65651;53.154;17.916;2023-10-13T02:23:44;12.20;;;6.00;;
76725;SDS011;65651;53.154;17.916;2023-10-13T02:26:12;11.60;;;5.80;;
76725;SDS011;65651;53.154;17.916;2023-10-13T02:29:00;11.50;;;5.10;;
76725;SDS011;65651;53.154;17.916;2023-10-13T02:31:35;11.10;;;4.30;;
76725;SDS011;65651;53.154;17.916;2023-10-13T02:34:03;9.00;;;5.10;;
76725;SDS011;65651;53.154;17.916;2023-10-13T02:36:35;10.90;;;5.80;;
76725;SDS011;65651;53.154;17.916;2023-10-13T02:39:03;12.20;;;4.90;;
76725;SDS011;65651;53.154;17.916;2023-10-13T02:41:35;11.30;;;4.60;;
76725;SDS011;65651;53.154;17.916;2023-10-13T02:44:06;14.70;;;5.00;;
76725;SDS011;65651;53.154;17.916;2023-10-13T02:46:35;17.50;;;6.10;;
76725;SDS011;65651;53.154;17.916;2023-10-13T02:49:03;16.30;;;5.00;;
76725;SDS011;65651;53.154;17.916;2023-10-13T02:51:37;22.80;;;6.60;;
76725;SDS011;65651;53.154;17.916;2023-10-13T02:54:10;20.20;;;6.30;;
76725;SDS011;65651;53.154;17.916;2023-10-13T02:56:45;26.10;;;6.80;;
76725;SDS011;65651;53.154;17.916;2023-10-13T02:59:32;22.30;;;7.70;;
76725;SDS011;65651;53.154;17.916;2023-10-13T03:02:16;26.50;;;6.80;;
76725;SDS011;65651;53.154;17.916;2023-10-13T03:04:53;23.20;;;7.40;;
76725;SDS011;65651;53.154;17.916;2023-10-13T03:07:37;24.60;;;6.80;;
76725;SDS011;65651;53.154;17.916;2023-10-13T03:10:04;19.70;;;5.80;;
76725;SDS011;65651;53.154;17.916;2023-10-13T03:12:39;14.50;;;5.70;;
76725;SDS011;65651;53.154;17.916;2023-10-13T03:15:09;20.00;;;6.80;;
76725;SDS011;65651;53.154;17.916;2023-10-13T03:17:40;22.90;;;6.70;;
76725;SDS011;65651;53.154;17.916;2023-10-13T03:20:11;18.90;;;6.20;;
76725;SDS011;65651;53.154;17.916;2023-10-13T03:22:43;22.20;;;6.10;;
76725;SDS011;65651;53.154;17.916;2023-10-13T03:25:13;24.90;;;6.70;;
76725;SDS011;65651;53.154;17.916;2023-10-13T03:28:03;29.00;;;7.60;;
76725;SDS011;65651;53.154;17.916;2023-10-13T03:30:32;26.60;;;6.90;;
76725;SDS011;65651;53.154;17.916;2023-10-13T03:33:03;19.80;;;5.90;;
76725;SDS011;65651;53.154;17.916;2023-10-13T03:35:38;24.40;;;6.70;;
76725;SDS011;65651;53.154;17.916;2023-10-13T03:38:10;22.30;;;6.70;;
76725;SDS011;65651;53.154;17.916;2023-10-13T03:40:45;27.80;;;7.90;;
76725;SDS011;65651;53.154;17.916;2023-10-13T03:43:23;20.80;;;7.00;;
76725;SDS011;65651;53.154;17.916;2023-10-13T03:45:51;24.70;;;8.50;;
76725;SDS011;65651;53.154;17.916;2023-10-13T03:48:27;23.00;;;6.90;;
76725;SDS011;65651;53.154;17.916;2023-10-13T03:50:56;27.90;;;7.50;;
76725;SDS011;65651;53.154;17.916;2023-10-13T03:53:42;21.90;;;7.10;;
76725;SDS011;65651;53.154;17.916;2023-10-13T03:56:23;22.20;;;7.70;;
76725;SDS011;65651;53.154;17.916;2023-10-13T03:58:55;25.60;;;8.80;;
76725;SDS011;65651;53.154;17.916;2023-10-13T04:01:41;25.70;;;9.10;;
76725;SDS011;65651;53.154;17.916;2023-10-13T04:04:11;23.50;;;8.80;;
76725;SDS011;65651;53.154;17.916;2023-10-13T04:06:43;21.10;;;8.60;;
76725;SDS011;65651;53.154;17.916;2023-10-13T04:09:15;23.40;;;9.00;;
76725;SDS011;65651;53.154;17.916;2023-10-13T04:12:01;18.60;;;7.90;;
76725;SDS011;65651;53.154;17.916;2023-10-13T04:14:30;21.00;;;7.50;;
76725;SDS011;65651;53.154;17.916;2023-10-13T04:17:29;19.80;;;7.90;;
76725;SDS011;65651;53.154;17.916;2023-10-13T04:20:02;17.00;;;7.20;;
76725;SDS011;65651;53.154;17.916;2023-10-13T04:22:36;14.60;;;6.60;;
76725;SDS011;65651;53.154;17.916;2023-10-13T04:28:02;13.60;;;5.60;;
76725;SDS011;65651;53.154;17.916;2023-10-13T04:33:28;11.00;;;5.10;;
76725;SDS011;65651;53.154;17.916;2023-10-13T04:36:16;11.40;;;5.50;;
76725;SDS011;65651;53.154;17.916;2023-10-13T04:38:49;8.60;;;4.50;;
76725;SDS011;65651;53.154;17.916;2023-10-13T04:41:36;10.50;;;4.70;;
76725;SDS011;65651;53.154;17.916;2023-10-13T04:44:10;11.70;;;5.30;;
76725;SDS011;65651;53.154;17.916;2023-10-13T04:46:58;10.50;;;6.10;;
76725;SDS011;65651;53.154;17.916;2023-10-13T04:49:27;11.80;;;5.70;;
76725;SDS011;65651;53.154;17.916;2023-10-13T04:52:05;9.70;;;5.10;;
76725;SDS011;65651;53.154;17.916;2023-10-13T04:54:42;10.10;;;5.60;;
76725;SDS011;65651;53.154;17.916;2023-10-13T04:57:33;8.00;;;4.50;;
76725;SDS011;65651;53.154;17.916;2023-10-13T05:00:32;12.80;;;5.40;;
76725;SDS011;65651;53.154;17.916;2023-10-13T05:03:20;11.70;;;5.20;;
76725;SDS011;65651;53.154;17.916;2023-10-13T05:06:06;8.20;;;4.80;;
76725;SDS011;65651;53.154;17.916;2023-10-13T05:08:52;8.20;;;4.50;;
76725;SDS011;65651;53.154;17.916;2023-10-13T05:11:44;7.20;;;4.90;;
76725;SDS011;65651;53.154;17.916;2023-10-13T05:14:30;7.70;;;4.70;;
76725;SDS011;65651;53.154;17.916;2023-10-13T05:17:15;8.00;;;5.00;;
76725;SDS011;65651;53.154;17.916;2023-10-13T05:20:01;9.20;;;5.80;;
76725;SDS011;65651;53.154;17.916;2023-10-13T05:22:49;10.00;;;5.30;;
76725;SDS011;65651;53.154;17.916;2023-10-13T05:25:36;8.20;;;6.70;;
76725;SDS011;65651;53.154;17.916;2023-10-13T05:28:23;10.80;;;5.10;;
76725;SDS011;65651;53.154;17.916;2023-10-13T05:31:09;11.30;;;5.70;;
76725;SDS011;65651;53.154;17.916;2023-10-13T05:33:55;11.10;;;6.00;;
76725;SDS011;65651;53.154;17.916;2023-10-13T05:36:41;9.90;;;5.00;;
76725;SDS011;65651;53.154;17.916;2023-10-13T05:39:26;10.70;;;5.30;;
76725;SDS011;65651;53.154;17.916;2023-10-13T05:42:12;9.90;;;5.80;;
76725;SDS011;65651;53.154;17.916;2023-10-13T05:44:58;11.80;;;5.80;;
76725;SDS011;65651;53.154;17.916;2023-10-13T05:47:46;14.20;;;5.90;;
76725;SDS011;65651;53.154;17.916;2023-10-13T05:50:14;13.20;;;7.20;;
76725;SDS011;65651;53.154;17.916;2023-10-13T05:52:48;10.70;;;5.90;;
76725;SDS011;65651;53.154;17.916;2023-10-13T05:55:22;12.10;;;6.70;;
76725;SDS011;65651;53.154;17.916;2023-10-13T05:58:12;11.50;;;5.80;;
76725;SDS011;65651;53.154;17.916;2023-10-13T06:00:58;11.40;;;6.40;;
76725;SDS011;65651;53.154;17.916;2023-10-13T06:03:44;13.20;;;6.50;;
76725;SDS011;65651;53.154;17.916;2023-10-13T06:06:30;11.50;;;7.20;;
76725;SDS011;65651;53.154;17.916;2023-10-13T06:09:16;13.20;;;7.60;;
76725;SDS011;65651;53.154;17.916;2023-10-13T06:12:02;14.10;;;7.60;;
76725;SDS011;65651;53.154;17.916;2023-10-13T06:14:49;11.50;;;6.80;;
76725;SDS011;65651;53.154;17.916;2023-10-13T06:17:35;15.20;;;8.50;;
76725;SDS011;65651;53.154;17.916;2023-10-13T06:20:21;12.60;;;7.10;;
76725;SDS011;65651;53.154;17.916;2023-10-13T06:23:06;15.10;;;7.60;;
76725;SDS011;65651;53.154;17.916;2023-10-13T06:25:57;11.60;;;6.40;;
76725;SDS011;65651;53.154;17.916;2023-10-13T06:28:46;16.90;;;8.40;;
76725;SDS011;65651;53.154;17.916;2023-10-13T06:31:13;14.10;;;7.30;;
76725;SDS011;65651;53.154;17.916;2023-10-13T06:33:49;13.60;;;7.60;;
76725;SDS011;65651;53.154;17.916;2023-10-13T06:36:17;14.70;;;6.80;;
76725;SDS011;65651;53.154;17.916;2023-10-13T06:38:44;18.80;;;8.80;;
76725;SDS011;65651;53.154;17.916;2023-10-13T06:41:12;23.60;;;10.30;;
76725;SDS011;65651;53.154;17.916;2023-10-13T06:43:57;21.30;;;9.30;;
76725;SDS011;65651;53.154;17.916;2023-10-13T06:46:30;21.00;;;8.30;;
76725;SDS011;65651;53.154;17.916;2023-10-13T06:49:03;17.00;;;8.20;;
76725;SDS011;65651;53.154;17.916;2023-10-13T06:51:30;19.20;;;9.10;;
76725;SDS011;65651;53.154;17.916;2023-10-13T06:54:05;22.00;;;9.40;;
76725;SDS011;65651;53.154;17.916;2023-10-13T06:56:47;26.80;;;12.20;;
76725;SDS011;65651;53.154;17.916;2023-10-13T06:59:19;20.10;;;8.10;;
76725;SDS011;65651;53.154;17.916;2023-10-13T07:01:46;26.20;;;10.30;;
76725;SDS011;65651;53.154;17.916;2023-10-13T07:04:15;20.80;;;8.50;;
76725;SDS011;65651;53.154;17.916;2023-10-13T07:06:43;19.10;;;8.90;;
76725;SDS011;65651;53.154;17.916;2023-10-13T07:09:17;19.70;;;8.70;;
76725;SDS011;65651;53.154;17.916;2023-10-13T07:12:04;15.60;;;7.50;;
76725;SDS011;65651;53.154;17.916;2023-10-13T07:14:53;18.20;;;8.70;;
76725;SDS011;65651;53.154;17.916;2023-10-13T07:17:30;16.90;;;8.40;;
76725;SDS011;65651;53.154;17.916;2023-10-13T07:20:05;19.40;;;9.70;;
76725;SDS011;65651;53.154;17.916;2023-10-13T07:22:42;22.20;;;8.20;;
76725;SDS011;65651;53.154;17.916;2023-10-13T07:25:21;19.70;;;8.70;;
76725;SDS011;65651;53.154;17.916;2023-10-13T07:27:55;17.90;;;7.60;;
76725;SDS011;65651;53.154;17.916;2023-10-13T07:30:23;20.00;;;8.40;;
76725;SDS011;65651;53.154;17.916;2023-10-13T07:32:53;18.60;;;9.00;;
76725;SDS011;65651;53.154;17.916;2023-10-13T07:35:24;14.40;;;8.30;;
76725;SDS011;65651;53.154;17.916;2023-10-13T07:37:53;23.30;;;10.10;;
76725;SDS011;65651;53.154;17.916;2023-10-13T07:40:21;23.70;;;9.80;;
76725;SDS011;65651;53.154;17.916;2023-10-13T07:42:55;16.40;;;8.50;;
76725;SDS011;65651;53.154;17.916;2023-10-13T07:45:44;23.20;;;10.40;;
76725;SDS011;65651;53.154;17.916;2023-10-13T07:48:11;18.10;;;9.30;;
76725;SDS011;65651;53.154;17.916;2023-10-13T07:50:43;20.70;;;11.10;;
76725;SDS011;65651;53.154;17.916;2023-10-13T07:53:12;21.10;;;10.20;;
76725;SDS011;65651;53.154;17.916;2023-10-13T07:56:00;22.10;;;10.70;;
76725;SDS011;65651;53.154;17.916;2023-10-13T07:58:40;20.40;;;10.80;;
76725;SDS011;65651;53.154;17.916;2023-10-13T08:01:27;22.00;;;11.00;;
76725;SDS011;65651;53.154;17.916;2023-10-13T08:03:54;18.20;;;8.80;;
76725;SDS011;65651;53.154;17.916;2023-10-13T08:06:46;22.90;;;10.80;;
76725;SDS011;65651;53.154;17.916;2023-10-13T08:09:13;27.50;;;12.10;;
76725;SDS011;65651;53.154;17.916;2023-10-13T08:12:08;16.00;;;8.50;;
76725;SDS011;65651;53.154;17.916;2023-10-13T08:14:38;25.10;;;11.40;;
76725;SDS011;65651;53.154;17.916;2023-10-13T08:17:09;22.60;;;10.70;;
76725;SDS011;65651;53.154;17.916;2023-10-13T08:19:38;22.10;;;10.10;;
76725;SDS011;65651;53.154;17.916;2023-10-13T08:22:16;23.40;;;10.40;;
76725;SDS011;65651;53.154;17.916;2023-10-13T08:24:47;22.40;;;10.00;;
76725;SDS011;65651;53.154;17.916;2023-10-13T08:27:18;30.10;;;11.00;;
76725;SDS011;65651;53.154;17.916;2023-10-13T08:30:07;27.80;;;10.80;;
76725;SDS011;65651;53.154;17.916;2023-10-13T08:32:53;23.00;;;11.00;;
76725;SDS011;65651;53.154;17.916;2023-10-13T08:35:44;19.60;;;9.90;;
76725;SDS011;65651;53.154;17.916;2023-10-13T08:38:32;24.70;;;9.50;;
76725;SDS011;65651;53.154;17.916;2023-10-13T08:41:17;17.60;;;9.20;;
76725;SDS011;65651;53.154;17.916;2023-10-13T08:43:50;19.70;;;9.20;;
76725;SDS011;65651;53.154;17.916;2023-10-13T08:46:20;20.50;;;9.40;;
76725;SDS011;65651;53.154;17.916;2023-10-13T08:48:58;22.40;;;11.30;;
76725;SDS011;65651;53.154;17.916;2023-10-13T08:51:42;78.80;;;32.20;;
76725;SDS011;65651;53.154;17.916;2023-10-13T08:54:19;48.60;;;24.10;;
76725;SDS011;65651;53.154;17.916;2023-10-13T08:56:47;31.70;;;16.70;;
76725;SDS011;65651;53.154;17.916;2023-10-13T08:59:30;28.40;;;16.50;;
76725;SDS011;65651;53.154;17.916;2023-10-13T09:02:15;30.70;;;22.90;;
76725;SDS011;65651;53.154;17.916;2023-10-13T09:04:46;20.60;;;13.00;;
76725;SDS011;65651;53.154;17.916;2023-10-13T09:07:29;18.90;;;10.80;;
76725;SDS011;65651;53.154;17.916;2023-10-13T09:09:56;35.00;;;16.30;;
76725;SDS011;65651;53.154;17.916;2023-10-13T09:12:29;50.50;;;23.70;;
76725;SDS011;65651;53.154;17.916;2023-10-13T09:15:00;297.40;;;122.30;;
76725;SDS011;65651;53.154;17.916;2023-10-13T09:17:40;121.10;;;50.30;;
76725;SDS011;65651;53.154;17.916;2023-10-13T09:20:09;96.20;;;38.30;;
76725;SDS011;65651;53.154;17.916;2023-10-13T09:23:14;207.10;;;83.00;;
76725;SDS011;65651;53.154;17.916;2023-10-13T09:25:52;377.90;;;147.40;;
76725;SDS011;65651;53.154;17.916;2023-10-13T09:28:28;83.20;;;33.40;;
76725;SDS011;65651;53.154;17.916;2023-10-13T09:30:58;97.00;;;36.60;;
76725;SDS011;65651;53.154;17.916;2023-10-13T09:33:27;191.70;;;79.00;;
76725;SDS011;65651;53.154;17.916;2023-10-13T09:36:13;57.80;;;21.70;;
76725;SDS011;65651;53.154;17.916;2023-10-13T09:38:44;45.50;;;17.90;;
76725;SDS011;65651;53.154;17.916;2023-10-13T09:41:30;319.60;;;142.20;;
76725;SDS011;65651;53.154;17.916;2023-10-13T09:43:59;99.30;;;40.60;;
76725;SDS011;65651;53.154;17.916;2023-10-13T09:46:26;41.90;;;17.90;;
76725;SDS011;65651;53.154;17.916;2023-10-13T09:49:08;75.40;;;36.20;;
76725;SDS011;65651;53.154;17.916;2023-10-13T09:51:49;54.60;;;23.30;;
76725;SDS011;65651;53.154;17.916;2023-10-13T09:54:36;42.80;;;20.40;;
76725;SDS011;65651;53.154;17.916;2023-10-13T09:57:15;31.70;;;14.20;;
76725;SDS011;65651;53.154;17.916;2023-10-13T09:59:47;34.50;;;17.40;;
76725;SDS011;65651;53.154;17.916;2023-10-13T10:02:19;27.60;;;14.00;;
76725;SDS011;65651;53.154;17.916;2023-10-13T10:04:54;23.00;;;10.20;;
76725;SDS011;65651;53.154;17.916;2023-10-13T10:07:57;19.60;;;10.20;;
76725;SDS011;65651;53.154;17.916;2023-10-13T10:10:47;24.90;;;10.00;;
76725;SDS011;65651;53.154;17.916;2023-10-13T10:13:32;33.30;;;17.20;;
76725;SDS011;65651;53.154;17.916;2023-10-13T10:16:10;33.20;;;13.30;;
76725;SDS011;65651;53.154;17.916;2023-10-13T10:18:46;21.70;;;10.20;;
76725;SDS011;65651;53.154;17.916;2023-10-13T10:21:14;19.80;;;8.70;;
76725;SDS011;65651;53.154;17.916;2023-10-13T10:23:48;44.70;;;22.40;;
76725;SDS011;65651;53.154;17.916;2023-10-13T10:26:21;32.00;;;15.30;;
76725;SDS011;65651;53.154;17.916;2023-10-13T10:28:50;34.40;;;16.80;;
76725;SDS011;65651;53.154;17.916;2023-10-13T10:31:21;21.10;;;11.50;;
76725;SDS011;65651;53.154;17.916;2023-10-13T10:34:16;28.80;;;14.10;;
76725;SDS011;65651;53.154;17.916;2023-10-13T10:36:53;32.20;;;12.20;;
76725;SDS011;65651;53.154;17.916;2023-10-13T10:39:35;30.30;;;12.90;;
76725;SDS011;65651;53.154;17.916;2023-10-13T10:42:16;37.60;;;17.30;;
76725;SDS011;65651;53.154;17.916;2023-10-13T10:44:49;22.60;;;11.40;;
76725;SDS011;65651;53.154;17.916;2023-10-13T10:47:25;32.60;;;15.20;;
76725;SDS011;65651;53.154;17.916;2023-10-13T10:50:24;22.70;;;9.90;;
76725;SDS011;65651;53.154;17.916;2023-10-13T10:53:05;31.30;;;14.30;;
76725;SDS011;65651;53.154;17.916;2023-10-13T10:55:37;37.10;;;17.50;;
76725;SDS011;65651;53.154;17.916;2023-10-13T10:58:05;32.40;;;16.50;;
76725;SDS011;65651;53.154;17.916;2023-10-13T11:00:38;24.80;;;10.80;;
76725;SDS011;65651;53.154;17.916;2023-10-13T11:03:13;24.60;;;11.10;;
76725;SDS011;65651;53.154;17.916;2023-10-13T11:05:46;32.90;;;15.70;;
76725;SDS011;65651;53.154;17.916;2023-10-13T11:08:24;46.20;;;22.00;;
76725;SDS011;65651;53.154;17.916;2023-10-13T11:11:04;50.50;;;23.20;;
76725;SDS011;65651;53.154;17.916;2023-10-13T11:13:42;16.50;;;9.60;;
76725;SDS011;65651;53.154;17.916;2023-10-13T11:16:21;29.50;;;12.80;;
76725;SDS011;65651;53.154;17.916;2023-10-13T11:19:03;62.40;;;33.40;;
76725;SDS011;65651;53.154;17.916;2023-10-13T11:21:34;26.90;;;13.70;;
76725;SDS011;65651;53.154;17.916;2023-10-13T11:24:04;39.00;;;18.90;;
76725;SDS011;65651;53.154;17.916;2023-10-13T11:26:41;63.00;;;35.30;;
76725;SDS011;65651;53.154;17.916;2023-10-13T11:29:19;42.70;;;23.10;;
76725;SDS011;65651;53.154;17.916;2023-10-13T11:31:47;59.10;;;29.50;;
76725;SDS011;65651;53.154;17.916;2023-10-13T11:34:25;21.60;;;9.00;;
76725;SDS011;65651;53.154;17.916;2023-10-13T11:37:01;27.10;;;13.80;;
76725;SDS011;65651;53.154;17.916;2023-10-13T11:39:49;21.30;;;9.80;;
76725;SDS011;65651;53.154;17.916;2023-10-13T11:42:18;31.20;;;15.40;;
76725;SDS011;65651;53.154;17.916;2023-10-13T11:44:46;33.80;;;17.20;;
76725;SDS011;65651;53.154;17.916;2023-10-13T11:47:28;23.60;;;11.30;;
76725;SDS011;65651;53.154;17.916;2023-10-13T11:50:14;48.10;;;25.00;;
76725;SDS011;65651;53.154;17.916;2023-10-13T11:52:54;83.90;;;40.90;;
76725;SDS011;65651;53.154;17.916;2023-10-13T11:55:22;53.40;;;27.50;;
76725;SDS011;65651;53.154;17.916;2023-10-13T11:57:54;74.90;;;38.10;;
76725;SDS011;65651;53.154;17.916;2023-10-13T12:00:25;33.60;;;15.40;;
76725;SDS011;65651;53.154;17.916;2023-10-13T12:03:17;27.60;;;12.70;;
76725;SDS011;65651;53.154;17.916;2023-10-13T12:06:03;26.20;;;12.80;;
76725;SDS011;65651;53.154;17.916;2023-10-13T12:08:54;29.70;;;16.70;;
76725;SDS011;65651;53.154;17.916;2023-10-13T12:11:21;23.60;;;11.70;;
76725;SDS011;65651;53.154;17.916;2023-10-13T12:13:57;46.80;;;23.60;;
76725;SDS011;65651;53.154;17.916;2023-10-13T12:16:27;55.10;;;28.50;;
76725;SDS011;65651;53.154;17.916;2023-10-13T12:19:01;28.60;;;15.00;;
76725;SDS011;65651;53.154;17.916;2023-10-13T12:21:28;84.30;;;43.70;;
76725;SDS011;65651;53.154;17.916;2023-10-13T12:23:56;42.80;;;23.40;;
76725;SDS011;65651;53.154;17.916;2023-10-13T12:26:23;75.40;;;34.90;;
76725;SDS011;65651;53.154;17.916;2023-10-13T12:28:59;70.40;;;29.70;;
76725;SDS011;65651;53.154;17.916;2023-10-13T12:31:33;64.00;;;26.20;;
76725;SDS011;65651;53.154;17.916;2023-10-13T12:34:05;46.20;;;20.80;;
76725;SDS011;65651;53.154;17.916;2023-10-13T12:36:33;61.20;;;24.60;;
76725;SDS011;65651;53.154;17.916;2023-10-13T12:39:20;42.60;;;20.20;;
76725;SDS011;65651;53.154;17.916;2023-10-13T12:42:16;59.90;;;25.50;;
76725;SDS011;65651;53.154;17.916;2023-10-13T12:45:02;60.60;;;25.40;;
76725;SDS011;65651;53.154;17.916;2023-10-13T12:47:49;93.30;;;41.40;;
76725;SDS011;65651;53.154;17.916;2023-10-13T12:50:36;63.00;;;30.70;;
76725;SDS011;65651;53.154;17.916;2023-10-13T12:53:11;78.90;;;38.00;;
76725;SDS011;65651;53.154;17.916;2023-10-13T12:55:40;95.30;;;40.30;;
76725;SDS011;65651;53.154;17.916;2023-10-13T12:58:08;81.90;;;33.80;;
76725;SDS011;65651;53.154;17.916;2023-10-13T13:00:35;78.00;;;32.60;;
76725;SDS011;65651;53.154;17.916;2023-10-13T13:03:03;69.40;;;32.80;;
76725;SDS011;65651;53.154;17.916;2023-10-13T13:05:38;96.20;;;43.00;;
76725;SDS011;65651;53.154;17.916;2023-10-13T13:08:11;80.10;;;35.00;;
76725;SDS011;65651;53.154;17.916;2023-10-13T13:10:39;61.40;;;28.30;;
76725;SDS011;65651;53.154;17.916;2023-10-13T13:13:08;103.20;;;42.60;;
76725;SDS011;65651;53.154;17.916;2023-10-13T13:15:36;143.50;;;58.50;;
76725;SDS011;65651;53.154;17.916;2023-10-13T13:18:03;93.90;;;40.40;;
76725;SDS011;65651;53.154;17.916;2023-10-13T13:20:38;78.60;;;33.30;;
76725;SDS011;65651;53.154;17.916;2023-10-13T13:23:22;94.70;;;38.50;;
76725;SDS011;65651;53.154;17.916;2023-10-13T13:25:53;163.90;;;65.80;;
76725;SDS011;65651;53.154;17.916;2023-10-13T13:28:23;113.20;;;47.00;;
76725;SDS011;65651;53.154;17.916;2023-10-13T13:30:51;112.00;;;49.50;;
76725;SDS011;65651;53.154;17.916;2023-10-13T13:33:21;64.60;;;31.10;;
76725;SDS011;65651;53.154;17.916;2023-10-13T13:35:53;72.70;;;39.10;;
76725;SDS011;65651;53.154;17.916;2023-10-13T13:38:21;66.90;;;32.90;;
76725;SDS011;65651;53.154;17.916;2023-10-13T13:40:57;85.10;;;36.00;;
76725;SDS011;65651;53.154;17.916;2023-10-13T13:43:25;53.10;;;22.10;;
76725;SDS011;65651;53.154;17.916;2023-10-13T13:46:04;67.80;;;32.50;;
76725;SDS011;65651;53.154;17.916;2023-10-13T13:48:36;43.60;;;19.60;;
76725;SDS011;65651;53.154;17.916;2023-10-13T13:51:06;57.40;;;22.60;;
76725;SDS011;65651;53.154;17.916;2023-10-13T13:53:46;52.40;;;21.50;;
76725;SDS011;65651;53.154;17.916;2023-10-13T13:56:15;46.90;;;21.20;;
76725;SDS011;65651;53.154;17.916;2023-10-13T13:58:45;36.00;;;15.90;;
76725;SDS011;65651;53.154;17.916;2023-10-13T14:01:13;24.30;;;10.90;;
76725;SDS011;65651;53.154;17.916;2023-10-13T14:03:42;40.30;;;16.20;;
76725;SDS011;65651;53.154;17.916;2023-10-13T14:08:54;44.80;;;20.30;;
76725;SDS011;65651;53.154;17.916;2023-10-13T14:11:30;72.20;;;29.10;;
76725;SDS011;65651;53.154;17.916;2023-10-13T14:16:55;87.10;;;36.80;;
76725;SDS011;65651;53.154;17.916;2023-10-13T14:19:36;58.40;;;25.30;;
76725;SDS011;65651;53.154;17.916;2023-10-13T14:22:07;128.10;;;55.50;;
76725;SDS011;65651;53.154;17.916;2023-10-13T14:24:44;129.80;;;56.40;;
76725;SDS011;65651;53.154;17.916;2023-10-13T14:27:14;41.70;;;17.50;;
76725;SDS011;65651;53.154;17.916;2023-10-13T14:29:46;52.60;;;19.80;;
76725;SDS011;65651;53.154;17.916;2023-10-13T14:32:14;72.90;;;25.80;;
76725;SDS011;65651;53.154;17.916;2023-10-13T14:34:42;76.60;;;28.00;;
76725;SDS011;65651;53.154;17.916;2023-10-13T14:37:11;158.10;;;51.20;;
76725;SDS011;65651;53.154;17.916;2023-10-13T14:39:55;82.30;;;28.80;;
76725;SDS011;65651;53.154;17.916;2023-10-13T14:42:26;77.40;;;28.10;;
76725;SDS011;65651;53.154;17.916;2023-10-13T14:44:55;49.90;;;19.20;;
76725;SDS011;65651;53.154;17.916;2023-10-13T14:47:23;134.20;;;43.10;;
76725;SDS011;65651;53.154;17.916;2023-10-13T14:49:54;117.10;;;41.10;;
76725;SDS011;65651;53.154;17.916;2023-10-13T14:52:22;113.00;;;46.20;;
76725;SDS011;65651;53.154;17.916;2023-10-13T14:54:50;94.00;;;38.80;;
76725;SDS011;65651;53.154;17.916;2023-10-13T14:57:22;53.60;;;24.70;;
76725;SDS011;65651;53.154;17.916;2023-10-13T14:59:52;43.60;;;20.00;;
76725;SDS011;65651;53.154;17.916;2023-10-13T15:02:20;37.80;;;18.60;;
76725;SDS011;65651;53.154;17.916;2023-10-13T15:04:48;80.50;;;34.60;;
76725;SDS011;65651;53.154;17.916;2023-10-13T15:07:16;60.00;;;26.60;;
76725;SDS011;65651;53.154;17.916;2023-10-13T15:09:45;98.50;;;43.80;;
76725;SDS011;65651;53.154;17.916;2023-10-13T15:12:12;119.00;;;49.30;;
76725;SDS011;65651;53.154;17.916;2023-10-13T15:14:40;69.40;;;32.20;;
76725;SDS011;65651;53.154;17.916;2023-10-13T15:17:11;49.10;;;21.60;;